createdAt,value
2022-11-26T00:00:13.793Z,3.40
2022-11-26T00:01:13.822Z,4.44
2022-11-26T00:02:14.094Z,3.40
2022-11-26T00:03:13.177Z,3.88
2022-11-26T00:04:13.489Z,3.20
2022-11-26T00:05:14.685Z,4.48
2022-11-26T00:06:13.539Z,9.44
2022-11-26T00:07:15.195Z,10.56
2022-11-26T00:08:13.529Z,13.48
2022-11-26T00:09:13.692Z,13.08
2022-11-26T00:10:13.760Z,7.72
2022-11-26T00:11:13.732Z,10.08
2022-11-26T00:12:13.978Z,8.64
2022-11-26T00:13:12.955Z,7.56
2022-11-26T00:14:18.022Z,10.32
2022-11-26T00:15:13.280Z,10.52
2022-11-26T00:16:13.524Z,9.16
2022-11-26T00:17:13.879Z,9.32
2022-11-26T00:18:13.829Z,9.24
2022-11-26T00:19:13.971Z,10.32
2022-11-26T00:20:12.912Z,9.04
2022-11-26T00:21:12.820Z,12.64
2022-11-26T00:22:14.605Z,8.20
2022-11-26T00:23:13.684Z,10.28
2022-11-26T00:24:13.752Z,11.56
2022-11-26T00:26:13.807Z,8.74
2022-11-26T00:27:13.923Z,11.52
2022-11-26T00:28:12.873Z,10.08
2022-11-26T00:30:48.919Z,10.80
2022-11-26T00:31:13.018Z,9.12
2022-11-26T00:32:13.188Z,9.88
2022-11-26T00:33:13.367Z,10.32
2022-11-26T00:34:13.326Z,9.60
2022-11-26T00:35:13.519Z,12.96
2022-11-26T00:36:33.715Z,10.40
2022-11-26T00:37:13.544Z,12.56
2022-11-26T00:38:51.803Z,9.36
2022-11-26T00:39:13.909Z,5.28
2022-11-26T00:40:13.977Z,6.48
2022-11-26T00:41:13.013Z,7.68
2022-11-26T00:42:13.155Z,8.40
2022-11-26T00:43:13.065Z,6.36
2022-11-26T00:44:13.237Z,7.52
2022-11-26T00:45:19.321Z,14.00
2022-11-26T00:47:13.884Z,10.00
2022-11-26T00:48:12.931Z,12.32
2022-11-26T00:50:13.869Z,10.16
2022-11-26T00:51:13.822Z,3.68
2022-11-26T00:52:13.981Z,5.32
2022-11-26T00:53:12.909Z,5.36
2022-11-26T00:54:12.828Z,5.04
2022-11-26T00:55:14.036Z,7.48
2022-11-26T00:56:12.974Z,6.40
2022-11-26T00:57:13.297Z,2.40
2022-11-26T00:58:13.408Z,8.16
2022-11-26T00:59:13.513Z,8.84
2022-11-26T01:00:13.576Z,7.88
2022-11-26T01:01:13.726Z,9.84
2022-11-26T01:02:13.861Z,5.88
2022-11-26T01:03:13.766Z,5.60
2022-11-26T01:04:13.690Z,8.56
2022-11-26T01:05:13.632Z,5.64
2022-11-26T01:06:13.758Z,3.12
2022-11-26T01:07:13.905Z,6.82
2022-11-26T01:08:12.997Z,5.28
2022-11-26T01:09:13.072Z,9.52
2022-11-26T01:10:33.193Z,10.64
2022-11-26T01:11:13.117Z,9.24
2022-11-26T01:12:13.411Z,7.92
2022-11-26T01:13:13.896Z,6.43
2022-11-26T01:14:24.030Z,7.16
2022-11-26T01:15:13.217Z,5.56
2022-11-26T01:16:13.668Z,8.24
2022-11-26T01:17:13.899Z,13.01
2022-11-26T01:18:12.970Z,21.76
2022-11-26T01:19:13.149Z,12.32
2022-11-26T01:20:13.578Z,14.20
2022-11-26T01:21:13.990Z,14.60
2022-11-26T01:22:12.835Z,9.92
2022-11-26T01:23:14.071Z,12.84
2022-11-26T01:24:13.442Z,16.72
2022-11-26T01:25:13.445Z,18.72
2022-11-26T01:26:13.312Z,8.50
2022-11-26T01:27:13.184Z,8.32
2022-11-26T01:28:13.139Z,7.04
2022-11-26T01:29:13.143Z,12.68
2022-11-26T01:30:43.301Z,16.50
2022-11-26T01:31:13.192Z,23.28
2022-11-26T01:32:13.406Z,12.60
2022-11-26T01:33:13.511Z,8.08
2022-11-26T01:34:13.697Z,6.08
2022-11-26T01:35:14.268Z,5.92
2022-11-26T01:36:13.500Z,12.52
2022-11-26T01:37:13.883Z,5.84
2022-11-26T01:38:13.923Z,8.88
2022-11-26T01:39:13.265Z,10.84
2022-11-26T01:40:13.549Z,13.20
2022-11-26T01:41:13.812Z,13.48
2022-11-26T01:42:13.711Z,14.36
2022-11-26T01:43:13.689Z,8.84
2022-11-26T01:44:13.682Z,12.40
2022-11-26T01:45:13.993Z,13.88
2022-11-26T01:46:13.079Z,16.20
2022-11-26T01:47:13.147Z,17.36
2022-11-26T01:48:13.373Z,16.40
2022-11-26T01:49:13.502Z,17.40
2022-11-26T01:50:13.560Z,18.76
2022-11-26T01:51:18.833Z,14.16
2022-11-26T01:52:13.790Z,10.00
2022-11-26T01:54:13.780Z,6.00
2022-11-26T01:55:13.815Z,2.60
2022-11-26T01:56:13.795Z,4.56
2022-11-26T01:57:18.966Z,5.20
2022-11-26T01:58:38.331Z,4.62
2022-11-26T01:59:12.792Z,6.72
2022-11-26T02:00:13.871Z,5.00
2022-11-26T02:01:13.984Z,4.16
2022-11-26T02:02:13.333Z,2.80
2022-11-26T02:03:13.692Z,4.16
2022-11-26T02:04:14.139Z,6.68
2022-11-26T02:05:13.085Z,4.56
2022-11-26T02:06:13.219Z,8.96
2022-11-26T02:07:13.181Z,7.36
2022-11-26T02:08:33.220Z,9.20
2022-11-26T02:09:13.658Z,3.96
2022-11-26T02:10:13.686Z,3.56
2022-11-26T02:11:13.687Z,4.20
2022-11-26T02:12:14.145Z,3.64
2022-11-26T02:13:13.437Z,3.76
2022-11-26T02:14:13.442Z,3.16
2022-11-26T02:15:13.335Z,3.84
2022-11-26T02:16:13.267Z,2.36
2022-11-26T02:17:13.277Z,1.96
2022-11-26T02:18:13.359Z,2.36
2022-11-26T02:19:13.269Z,3.52
2022-11-26T02:20:13.117Z,1.48
2022-11-26T02:21:13.017Z,4.12
2022-11-26T02:23:13.222Z,1.92
2022-11-26T02:24:14.174Z,2.04
2022-11-26T02:25:13.155Z,1.80
2022-11-26T02:26:13.035Z,2.28
2022-11-26T02:27:13.038Z,1.96
2022-11-26T02:28:13.074Z,2.28
2022-11-26T02:29:12.994Z,1.56
2022-11-26T02:30:12.910Z,2.04
2022-11-26T02:31:13.473Z,1.76
2022-11-26T02:32:13.441Z,1.68
2022-11-26T02:33:13.576Z,1.76
2022-11-26T02:34:13.417Z,1.96
2022-11-26T02:35:14.716Z,1.72
2022-11-26T02:36:14.162Z,2.28
2022-11-26T02:37:13.205Z,3.22
2022-11-26T02:38:13.319Z,3.04
2022-11-26T02:39:13.510Z,3.60
2022-11-26T02:40:13.452Z,3.08
2022-11-26T02:41:13.690Z,2.52
2022-11-26T02:42:14.115Z,1.44
2022-11-26T02:43:13.234Z,2.69
2022-11-26T02:44:13.914Z,1.92
2022-11-26T02:45:13.025Z,1.48
2022-11-26T02:46:13.190Z,1.32
2022-11-26T02:47:13.086Z,1.76
2022-11-26T02:49:13.058Z,1.68
2022-11-26T02:50:13.019Z,2.72
2022-11-26T02:51:12.922Z,2.24
2022-11-26T02:52:13.106Z,2.56
2022-11-26T02:53:13.113Z,1.52
2022-11-26T02:54:13.251Z,2.20
2022-11-26T02:55:13.158Z,1.68
2022-11-26T02:56:13.481Z,2.08
2022-11-26T02:57:13.768Z,1.88
2022-11-26T02:59:13.722Z,2.16
2022-11-26T03:00:13.876Z,1.20
2022-11-26T03:01:13.828Z,1.92
2022-11-26T03:02:13.920Z,2.16
2022-11-26T03:03:27.812Z,2.22
2022-11-26T03:04:13.983Z,2.88
2022-11-26T03:06:33.071Z,4.92
2022-11-26T03:07:13.068Z,5.04
2022-11-26T03:10:13.296Z,3.36
2022-11-26T03:12:13.199Z,3.36
2022-11-26T03:13:13.973Z,7.87
2022-11-26T03:14:13.023Z,6.96
2022-11-26T03:15:13.026Z,5.44
2022-11-26T03:16:12.988Z,5.00
2022-11-26T03:17:12.974Z,5.56
2022-11-26T03:18:13.130Z,7.68
2022-11-26T03:19:13.129Z,7.44
2022-11-26T03:20:21.840Z,2.64
2022-11-26T03:21:14.099Z,3.64
2022-11-26T03:22:13.384Z,9.36
2022-11-26T03:23:13.286Z,5.68
2022-11-26T03:24:23.124Z,3.40
2022-11-26T03:25:13.127Z,3.24
2022-11-26T03:26:13.108Z,3.20
2022-11-26T03:27:13.261Z,3.56
2022-11-26T03:28:13.255Z,2.68
2022-11-26T03:29:13.673Z,4.00
2022-11-26T03:30:13.637Z,3.48
2022-11-26T03:31:13.550Z,2.28
2022-11-26T03:32:38.868Z,7.92
2022-11-26T03:33:19.312Z,8.72
2022-11-26T03:35:13.621Z,7.20
2022-11-26T03:36:13.568Z,5.84
2022-11-26T03:37:13.562Z,5.92
2022-11-26T03:38:13.842Z,5.12
2022-11-26T03:39:14.259Z,10.16
2022-11-26T03:40:18.375Z,7.20
2022-11-26T03:41:13.429Z,7.68
2022-11-26T03:42:13.462Z,8.88
2022-11-26T03:43:27.934Z,10.08
2022-11-26T03:44:13.084Z,5.40
2022-11-26T03:45:13.443Z,9.36
2022-11-26T03:46:26.448Z,7.60
2022-11-26T03:47:15.236Z,7.68
2022-11-26T03:48:13.579Z,5.88
2022-11-26T03:49:18.904Z,7.44
2022-11-26T03:50:12.821Z,12.72
2022-11-26T03:51:24.647Z,7.10
2022-11-26T03:52:13.791Z,7.88
2022-11-26T03:53:13.706Z,6.44
2022-11-26T03:54:13.886Z,4.44
2022-11-26T03:55:13.920Z,4.92
2022-11-26T03:56:12.863Z,4.88
2022-11-26T03:57:14.044Z,4.80
2022-11-26T03:58:13.265Z,4.76
2022-11-26T03:59:40.604Z,7.36
2022-11-26T04:00:22.737Z,4.56
2022-11-26T04:01:31.751Z,6.63
2022-11-26T04:02:14.112Z,4.80
2022-11-26T04:03:13.122Z,8.02
2022-11-26T04:04:13.232Z,8.92
2022-11-26T04:05:13.308Z,7.56
2022-11-26T04:06:13.180Z,6.92
2022-11-26T04:07:13.326Z,6.04
2022-11-26T04:08:18.244Z,12.04
2022-11-26T04:09:13.121Z,8.36
2022-11-26T04:10:13.089Z,8.64
2022-11-26T04:11:13.398Z,10.68
2022-11-26T04:12:13.362Z,8.02
2022-11-26T04:13:13.388Z,6.84
2022-11-26T04:14:13.613Z,9.80
2022-11-26T04:15:13.590Z,10.96
2022-11-26T04:16:13.569Z,6.00
2022-11-26T04:17:13.889Z,8.32
2022-11-26T04:18:13.008Z,6.24
2022-11-26T04:21:13.189Z,5.68
2022-11-26T04:22:13.128Z,6.52
2022-11-26T04:23:13.398Z,6.28
2022-11-26T04:25:09.268Z,2.40
2022-11-26T04:25:19.287Z,6.36
2022-11-26T04:26:13.150Z,5.45
2022-11-26T04:27:13.086Z,3.28
2022-11-26T04:28:18.182Z,4.68
2022-11-26T04:29:13.271Z,5.55
2022-11-26T04:30:13.205Z,3.04
2022-11-26T04:32:13.131Z,4.92
2022-11-26T04:33:13.194Z,3.52
2022-11-26T04:34:23.251Z,3.96
2022-11-26T04:35:18.403Z,3.88
2022-11-26T04:36:13.324Z,3.84
2022-11-26T04:37:13.335Z,2.88
2022-11-26T04:38:13.404Z,2.88
2022-11-26T04:39:13.462Z,2.84
2022-11-26T04:41:13.265Z,5.28
2022-11-26T04:42:13.691Z,6.68
2022-11-26T04:43:13.676Z,7.96
2022-11-26T04:44:13.882Z,8.28
2022-11-26T04:45:13.822Z,4.76
2022-11-26T04:47:12.927Z,2.24
2022-11-26T04:48:12.884Z,3.16
2022-11-26T04:49:14.188Z,3.00
2022-11-26T04:50:13.354Z,4.76
2022-11-26T04:51:13.452Z,3.76
2022-11-26T04:52:13.335Z,4.36
2022-11-26T04:54:13.989Z,4.64
2022-11-26T04:55:13.077Z,3.36
2022-11-26T04:56:12.990Z,4.08
2022-11-26T04:57:12.990Z,4.68
2022-11-26T04:58:13.126Z,6.84
2022-11-26T04:59:18.297Z,5.76
2022-11-26T05:00:13.280Z,8.16
2022-11-26T05:01:13.659Z,6.28
2022-11-26T05:02:13.855Z,4.80
2022-11-26T05:03:12.988Z,6.56
2022-11-26T05:04:13.329Z,6.80
2022-11-26T05:05:57.107Z,3.60
2022-11-26T05:06:13.063Z,4.48
2022-11-26T05:07:12.951Z,10.84
2022-11-26T05:08:26.998Z,4.88
2022-11-26T05:09:25.238Z,4.64
2022-11-26T05:10:32.749Z,5.64
2022-11-26T05:11:33.833Z,2.64
2022-11-26T05:12:19.905Z,4.85
2022-11-26T05:13:43.548Z,8.40
2022-11-26T05:14:13.581Z,7.44
2022-11-26T05:15:13.833Z,6.29
2022-11-26T05:16:23.886Z,5.92
2022-11-26T05:17:12.842Z,6.27
2022-11-26T05:18:35.850Z,7.92
2022-11-26T05:19:14.167Z,8.76
2022-11-26T05:20:13.044Z,5.36
2022-11-26T05:21:18.046Z,5.04
2022-11-26T05:22:23.081Z,8.00
2022-11-26T05:24:13.990Z,6.36
2022-11-26T05:25:18.222Z,6.12
2022-11-26T05:27:30.801Z,5.86
2022-11-26T05:28:14.111Z,5.25
2022-11-26T05:29:28.549Z,8.98
2022-11-26T05:30:13.740Z,7.03
2022-11-26T05:31:14.009Z,6.16
2022-11-26T05:32:13.070Z,4.68
2022-11-26T05:33:13.197Z,6.44
2022-11-26T05:34:13.240Z,6.48
2022-11-26T05:35:13.451Z,4.24
2022-11-26T05:36:13.533Z,2.92
2022-11-26T05:37:13.574Z,3.80
2022-11-26T05:38:13.549Z,3.60
2022-11-26T05:39:13.813Z,3.12
2022-11-26T05:41:21.286Z,8.72
2022-11-26T05:42:13.261Z,8.72
2022-11-26T05:43:13.135Z,12.84
2022-11-26T05:44:13.139Z,17.96
2022-11-26T05:45:13.148Z,7.60
2022-11-26T05:46:13.151Z,17.48
2022-11-26T05:47:13.182Z,6.20
2022-11-26T05:48:13.084Z,13.84
2022-11-26T05:49:13.039Z,9.76
2022-11-26T05:50:12.899Z,7.92
2022-11-26T05:51:13.054Z,7.76
2022-11-26T05:52:13.193Z,3.44
2022-11-26T05:53:13.240Z,5.32
2022-11-26T05:54:13.413Z,5.96
2022-11-26T05:55:13.635Z,3.60
2022-11-26T05:57:12.460Z,2.88
2022-11-26T05:58:13.277Z,7.96
2022-11-26T06:00:12.848Z,6.08
2022-11-26T06:01:27.925Z,7.04
2022-11-26T06:02:13.611Z,15.36
2022-11-26T06:03:18.481Z,14.88
2022-11-26T06:04:13.275Z,6.00
2022-11-26T06:05:13.542Z,5.40
2022-11-26T06:06:13.419Z,9.28
2022-11-26T06:07:13.328Z,6.00
2022-11-26T06:08:13.284Z,3.64
2022-11-26T06:09:13.147Z,2.20
2022-11-26T06:10:13.113Z,8.40
2022-11-26T06:11:13.295Z,6.04
2022-11-26T06:12:13.129Z,3.64
2022-11-26T06:13:14.266Z,4.56
2022-11-26T06:14:13.752Z,8.16
2022-11-26T06:15:14.281Z,6.72
2022-11-26T06:16:13.566Z,5.88
2022-11-26T06:17:14.128Z,4.92
2022-11-26T06:18:13.139Z,6.48
2022-11-26T06:19:13.123Z,6.12
2022-11-26T06:20:13.086Z,6.28
2022-11-26T06:21:13.098Z,5.44
2022-11-26T06:22:13.199Z,4.28
2022-11-26T06:23:13.143Z,12.64
2022-11-26T06:24:13.074Z,9.48
2022-11-26T06:25:13.101Z,5.40
2022-11-26T06:26:13.098Z,7.12
2022-11-26T06:27:13.057Z,4.76
2022-11-26T06:28:13.000Z,3.56
2022-11-26T06:29:12.979Z,4.77
2022-11-26T06:30:12.874Z,5.52
2022-11-26T06:31:14.024Z,5.72
2022-11-26T06:32:13.246Z,5.24
2022-11-26T06:33:13.213Z,8.08
2022-11-26T06:34:13.300Z,5.72
2022-11-26T06:35:13.290Z,5.52
2022-11-26T06:36:13.195Z,10.60
2022-11-26T06:37:13.091Z,3.80
2022-11-26T06:38:13.136Z,1.36
2022-11-26T06:39:13.030Z,6.24
2022-11-26T06:40:12.977Z,7.32
2022-11-26T06:41:14.054Z,2.16
2022-11-26T06:42:13.555Z,3.88
2022-11-26T06:43:13.448Z,3.56
2022-11-26T06:44:13.675Z,3.16
2022-11-26T06:45:13.584Z,4.24
2022-11-26T06:46:13.928Z,7.12
2022-11-26T06:47:12.898Z,4.52
2022-11-26T06:48:12.965Z,4.44
2022-11-26T06:49:13.160Z,10.48
2022-11-26T06:50:13.249Z,5.24
2022-11-26T06:51:13.150Z,4.40
2022-11-26T06:52:13.569Z,3.52
2022-11-26T06:53:13.488Z,3.04
2022-11-26T06:54:13.658Z,11.24
2022-11-26T06:55:13.667Z,3.76
2022-11-26T06:56:18.504Z,4.16
2022-11-26T06:57:12.985Z,6.56
2022-11-26T06:58:12.857Z,7.12
2022-11-26T06:59:14.015Z,6.64
2022-11-26T07:00:12.975Z,7.20
2022-11-26T07:01:13.341Z,9.16
2022-11-26T07:02:13.807Z,4.08
2022-11-26T07:03:13.733Z,3.32
2022-11-26T07:04:13.702Z,8.00
2022-11-26T07:05:13.672Z,3.32
2022-11-26T07:06:13.533Z,3.80
2022-11-26T07:07:13.549Z,10.20
2022-11-26T07:08:13.657Z,6.16
2022-11-26T07:09:13.460Z,11.04
2022-11-26T07:10:13.286Z,9.96
2022-11-26T07:11:13.269Z,6.48
2022-11-26T07:12:13.210Z,11.16
2022-11-26T07:13:13.112Z,10.56
2022-11-26T07:14:13.213Z,5.72
2022-11-26T07:15:13.254Z,2.72
2022-11-26T07:16:13.423Z,4.96
2022-11-26T07:17:13.305Z,6.36
2022-11-26T07:18:14.430Z,17.36
2022-11-26T07:19:13.372Z,13.52
2022-11-26T07:20:13.363Z,7.88
2022-11-26T07:21:13.277Z,4.88
2022-11-26T07:22:13.159Z,5.04
2022-11-26T07:23:13.287Z,8.40
2022-11-26T07:24:13.186Z,9.04
2022-11-26T07:25:13.215Z,5.92
2022-11-26T07:26:13.394Z,7.08
2022-11-26T07:27:13.472Z,2.88
2022-11-26T07:28:13.814Z,2.32
2022-11-26T07:29:13.857Z,0.00
2022-11-26T07:30:13.952Z,6.92
2022-11-26T07:31:16.159Z,5.80
2022-11-26T07:32:13.732Z,4.20
2022-11-26T07:33:13.661Z,1.24
2022-11-26T07:34:13.596Z,1.04
2022-11-26T07:35:13.723Z,0.00
2022-11-26T07:36:13.613Z,1.08
2022-11-26T07:37:13.521Z,2.20
2022-11-26T07:38:13.619Z,5.76
2022-11-26T07:39:13.475Z,4.48
2022-11-26T07:40:13.577Z,6.60
2022-11-26T07:41:13.539Z,5.88
2022-11-26T07:42:13.391Z,5.48
2022-11-26T07:43:13.463Z,7.28
2022-11-26T07:44:13.329Z,4.48
2022-11-26T07:45:13.210Z,6.16
2022-11-26T07:46:13.633Z,3.16
2022-11-26T07:47:13.991Z,2.68
2022-11-26T07:48:16.917Z,4.80
2022-11-26T07:49:13.084Z,5.36
2022-11-26T07:50:12.924Z,5.60
2022-11-26T07:51:12.963Z,4.40
2022-11-26T07:52:13.112Z,4.08
2022-11-26T07:53:13.295Z,7.16
2022-11-26T07:54:13.498Z,5.08
2022-11-26T07:55:13.584Z,8.80
2022-11-26T07:56:13.644Z,8.00
2022-11-26T07:57:13.627Z,9.36
2022-11-26T07:58:13.606Z,9.32
2022-11-26T07:59:13.767Z,4.88
2022-11-26T08:00:13.674Z,11.20
2022-11-26T08:01:14.077Z,6.48
2022-11-26T08:02:13.255Z,10.68
2022-11-26T08:03:13.178Z,9.12
2022-11-26T08:04:13.443Z,8.80
2022-11-26T08:05:13.370Z,9.52
2022-11-26T08:06:13.577Z,17.28
2022-11-26T08:07:20.086Z,16.88
2022-11-26T08:08:13.541Z,19.28
2022-11-26T08:09:13.891Z,17.24
2022-11-26T08:10:13.152Z,8.08
2022-11-26T08:11:13.454Z,13.04
2022-11-26T08:12:13.587Z,12.52
2022-11-26T08:13:13.617Z,11.36
2022-11-26T08:14:13.903Z,10.48
2022-11-26T08:15:12.766Z,17.36
2022-11-26T08:16:13.751Z,6.24
2022-11-26T08:17:13.898Z,14.24
2022-11-26T08:18:13.004Z,19.04
2022-11-26T08:19:12.866Z,14.60
2022-11-26T08:20:13.993Z,13.84
2022-11-26T08:21:13.379Z,23.08
2022-11-26T08:22:13.564Z,23.56
2022-11-26T08:23:13.508Z,11.36
2022-11-26T08:24:13.812Z,13.16
2022-11-26T08:25:13.721Z,10.96
2022-11-26T08:26:33.893Z,10.88
2022-11-26T08:27:13.099Z,12.84
2022-11-26T08:28:13.049Z,10.32
2022-11-26T08:29:12.982Z,10.92
2022-11-26T08:30:12.884Z,18.56
2022-11-26T08:31:13.972Z,12.12
2022-11-26T08:32:12.954Z,13.92
2022-11-26T08:33:12.887Z,16.92
2022-11-26T08:34:13.056Z,13.88
2022-11-26T08:35:13.179Z,25.92
2022-11-26T08:36:13.105Z,17.76
2022-11-26T08:37:13.084Z,7.88
2022-11-26T08:38:12.995Z,26.76
2022-11-26T08:39:12.922Z,21.08
2022-11-26T08:40:14.112Z,10.80
2022-11-26T08:41:13.130Z,11.96
2022-11-26T08:42:13.183Z,15.36
2022-11-26T08:43:13.150Z,20.80
2022-11-26T08:44:13.093Z,22.84
2022-11-26T08:45:13.422Z,9.56
2022-11-26T08:46:13.599Z,16.24
2022-11-26T08:47:13.695Z,13.56
2022-11-26T08:48:13.943Z,17.84
2022-11-26T08:49:13.336Z,16.32
2022-11-26T08:50:13.225Z,14.36
2022-11-26T08:51:13.165Z,9.08
2022-11-26T08:52:13.580Z,7.12
2022-11-26T08:53:13.896Z,10.28
2022-11-26T08:54:14.043Z,6.00
2022-11-26T08:55:13.128Z,8.60
2022-11-26T08:56:13.471Z,3.12
2022-11-26T08:57:13.413Z,2.64
2022-11-26T08:58:13.583Z,4.28
2022-11-26T08:59:13.746Z,5.96
2022-11-26T09:00:13.723Z,3.64
2022-11-26T09:01:14.199Z,5.60
2022-11-26T09:02:18.484Z,9.44
2022-11-26T09:03:12.979Z,15.08
2022-11-26T09:04:13.405Z,13.28
2022-11-26T09:05:13.454Z,25.36
2022-11-26T09:06:13.436Z,12.80
2022-11-26T09:07:13.784Z,15.84
2022-11-26T09:08:13.966Z,11.84
2022-11-26T09:09:13.410Z,7.48
2022-11-26T09:10:13.564Z,19.20
2022-11-26T09:11:13.453Z,12.88
2022-11-26T09:12:13.454Z,14.88
2022-11-26T09:13:17.233Z,8.88
2022-11-26T09:14:13.956Z,8.64
2022-11-26T09:15:13.113Z,22.84
2022-11-26T09:16:13.190Z,24.84
2022-11-26T09:17:13.386Z,14.72
2022-11-26T09:18:13.475Z,10.92
2022-11-26T09:19:13.763Z,12.40
2022-11-26T09:20:13.723Z,3.88
2022-11-26T09:21:13.687Z,7.04
2022-11-26T09:22:13.728Z,9.04
2022-11-26T09:23:13.615Z,20.44
2022-11-26T09:24:13.628Z,19.80
2022-11-26T09:25:13.569Z,21.60
2022-11-26T09:26:13.548Z,21.68
2022-11-26T09:27:13.627Z,18.52
2022-11-26T09:28:13.560Z,30.60
2022-11-26T09:29:13.749Z,14.56
2022-11-26T09:30:13.753Z,21.08
2022-11-26T09:31:13.800Z,15.56
2022-11-26T09:32:26.164Z,26.32
2022-11-26T09:33:13.720Z,13.88
2022-11-26T09:34:13.620Z,11.48
2022-11-26T09:35:13.510Z,12.96
2022-11-26T09:36:13.593Z,24.04
2022-11-26T09:37:14.018Z,8.12
2022-11-26T09:38:12.953Z,3.44
2022-11-26T09:39:13.164Z,4.80
2022-11-26T09:40:13.132Z,1.32
2022-11-26T09:41:13.040Z,1.56
2022-11-26T09:42:12.930Z,0.76
2022-11-26T09:43:14.247Z,1.56
2022-11-26T09:44:13.569Z,3.08
2022-11-26T09:45:13.470Z,5.44
2022-11-26T09:46:13.510Z,9.12
2022-11-26T09:47:14.088Z,8.76
2022-11-26T09:48:13.393Z,6.00
2022-11-26T09:49:13.298Z,4.56
2022-11-26T09:50:13.277Z,4.72
2022-11-26T09:51:13.249Z,6.36
2022-11-26T09:52:13.150Z,6.28
2022-11-26T09:53:13.269Z,1.96
2022-11-26T09:54:13.174Z,8.92
2022-11-26T09:55:13.113Z,4.68
2022-11-26T09:56:13.221Z,6.92
2022-11-26T09:57:14.609Z,4.00
2022-11-26T09:58:13.980Z,3.36
2022-11-26T09:59:13.214Z,8.84
2022-11-26T10:00:13.349Z,3.12
2022-11-26T10:01:13.440Z,4.48
2022-11-26T10:02:13.443Z,3.16
2022-11-26T10:03:13.630Z,7.16
2022-11-26T10:04:13.688Z,3.08
2022-11-26T10:05:18.387Z,2.98
2022-11-26T10:06:13.275Z,2.84
2022-11-26T10:07:13.391Z,11.88
2022-11-26T10:08:13.493Z,6.48
2022-11-26T10:09:13.780Z,11.60
2022-11-26T10:10:13.839Z,4.24
2022-11-26T10:11:14.133Z,4.64
2022-11-26T10:12:25.005Z,17.44
2022-11-26T10:13:19.154Z,16.04
2022-11-26T10:14:12.915Z,12.48
2022-11-26T10:15:12.987Z,6.72
2022-11-26T10:16:12.899Z,3.63
2022-11-26T10:17:12.916Z,7.92
2022-11-26T10:18:12.758Z,3.24
2022-11-26T10:19:13.986Z,3.48
2022-11-26T10:20:13.112Z,9.32
2022-11-26T10:21:13.008Z,6.36
2022-11-26T10:22:12.882Z,4.52
2022-11-26T10:23:13.262Z,2.56
2022-11-26T10:24:13.132Z,5.12
2022-11-26T10:25:13.251Z,3.52
2022-11-26T10:26:13.456Z,4.48
2022-11-26T10:27:13.461Z,1.00
2022-11-26T10:28:13.730Z,1.72
2022-11-26T10:29:13.886Z,2.76
2022-11-26T10:30:14.402Z,3.44
2022-11-26T10:31:13.545Z,4.20
2022-11-26T10:32:13.531Z,7.48
2022-11-26T10:33:13.648Z,5.00
2022-11-26T10:34:13.756Z,6.00
2022-11-26T10:35:13.762Z,7.24
2022-11-26T10:36:13.660Z,2.40
2022-11-26T10:37:13.711Z,2.52
2022-11-26T10:38:14.057Z,3.20
2022-11-26T10:39:13.008Z,7.36
2022-11-26T10:40:12.991Z,5.92
2022-11-26T10:41:13.045Z,5.80
2022-11-26T10:42:12.913Z,4.12
2022-11-26T10:43:12.859Z,8.08
2022-11-26T10:44:13.927Z,6.76
2022-11-26T10:45:13.086Z,8.56
2022-11-26T10:46:13.323Z,5.96
2022-11-26T10:47:13.314Z,5.16
2022-11-26T10:48:13.461Z,6.64
2022-11-26T10:49:13.532Z,3.64
2022-11-26T10:50:32.194Z,1.76
2022-11-26T10:51:13.612Z,2.84
2022-11-26T10:52:13.782Z,3.60
2022-11-26T10:53:12.926Z,3.48
2022-11-26T10:54:13.074Z,3.04
2022-11-26T10:55:13.039Z,3.56
2022-11-26T10:56:13.014Z,3.68
2022-11-26T10:57:12.996Z,2.68
2022-11-26T10:58:13.271Z,3.28
2022-11-26T10:59:13.332Z,7.60
2022-11-26T11:00:13.411Z,12.24
2022-11-26T11:01:13.442Z,6.92
2022-11-26T11:02:13.445Z,8.36
2022-11-26T11:03:13.481Z,0.92
2022-11-26T11:04:13.441Z,1.56
2022-11-26T11:05:13.325Z,2.84
2022-11-26T11:06:13.156Z,5.40
2022-11-26T11:07:13.101Z,8.68
2022-11-26T11:08:13.329Z,6.56
2022-11-26T11:09:13.555Z,4.80
2022-11-26T11:10:13.405Z,3.32
2022-11-26T11:11:13.287Z,5.48
2022-11-26T11:12:13.217Z,8.96
2022-11-26T11:13:13.139Z,1.40
2022-11-26T11:14:13.439Z,2.28
2022-11-26T11:15:13.708Z,8.72
2022-11-26T11:16:13.993Z,9.44
2022-11-26T11:17:12.945Z,2.32
2022-11-26T11:18:13.204Z,4.08
2022-11-26T11:19:13.571Z,4.00
2022-11-26T11:20:13.665Z,10.36
2022-11-26T11:21:13.525Z,15.00
2022-11-26T11:22:13.537Z,9.84
2022-11-26T11:23:13.642Z,6.72
2022-11-26T11:24:14.288Z,6.12
2022-11-26T11:25:13.212Z,3.76
2022-11-26T11:26:13.039Z,8.44
2022-11-26T11:27:13.511Z,8.48
2022-11-26T11:28:13.584Z,11.72
2022-11-26T11:29:13.503Z,9.20
2022-11-26T11:30:13.632Z,4.24
2022-11-26T11:31:14.247Z,5.60
2022-11-26T11:32:13.320Z,7.52
2022-11-26T11:33:13.279Z,4.04
2022-11-26T11:34:13.178Z,3.48
2022-11-26T11:35:13.108Z,8.04
2022-11-26T11:36:13.232Z,5.20
2022-11-26T11:37:14.828Z,4.28
2022-11-26T11:38:13.008Z,5.08
2022-11-26T11:39:13.015Z,9.56
2022-11-26T11:40:17.103Z,2.56
2022-11-26T11:41:13.529Z,0.88
2022-11-26T11:42:13.961Z,4.84
2022-11-26T11:43:12.881Z,3.36
2022-11-26T11:44:14.476Z,5.64
2022-11-26T11:45:13.346Z,2.84
2022-11-26T11:46:13.619Z,3.88
2022-11-26T11:47:13.587Z,4.68
2022-11-26T11:48:13.696Z,5.96
2022-11-26T11:49:13.636Z,4.00
2022-11-26T11:50:13.522Z,4.32
2022-11-26T11:51:13.430Z,2.52
2022-11-26T11:52:13.546Z,5.44
2022-11-26T11:53:13.811Z,4.08
2022-11-26T11:54:13.630Z,2.36
2022-11-26T11:55:13.643Z,2.48
2022-11-26T11:56:13.972Z,1.92
2022-11-26T11:57:13.127Z,3.36
2022-11-26T11:58:13.525Z,3.60
2022-11-26T11:59:14.035Z,1.88
2022-11-26T12:00:13.113Z,6.48
2022-11-26T12:01:13.083Z,6.12
2022-11-26T12:02:12.976Z,2.08
2022-11-26T12:03:12.933Z,1.80
2022-11-26T12:04:16.431Z,3.76
2022-11-26T12:05:13.270Z,3.08
2022-11-26T12:06:13.204Z,1.76
2022-11-26T12:07:13.179Z,5.88
2022-11-26T12:08:13.262Z,7.48
2022-11-26T12:09:13.246Z,4.39
2022-11-26T12:10:13.498Z,13.20
2022-11-26T12:11:13.682Z,6.44
2022-11-26T12:12:13.964Z,2.20
2022-11-26T12:13:13.370Z,4.16
2022-11-26T12:14:13.584Z,6.08
2022-11-26T12:15:13.739Z,6.52
2022-11-26T12:16:14.123Z,9.76
2022-11-26T12:17:13.339Z,5.36
2022-11-26T12:18:13.374Z,8.28
2022-11-26T12:19:13.786Z,7.92
2022-11-26T12:20:13.836Z,9.28
2022-11-26T12:21:14.101Z,5.20
2022-11-26T12:22:13.067Z,4.84
2022-11-26T12:23:14.772Z,3.52
2022-11-26T12:24:13.262Z,3.72
2022-11-26T12:25:13.120Z,3.32
2022-11-26T12:26:13.158Z,13.84
2022-11-26T12:27:13.038Z,19.40
2022-11-26T12:28:13.136Z,5.24
2022-11-26T12:29:12.986Z,4.44
2022-11-26T12:30:12.922Z,7.04
2022-11-26T12:31:12.748Z,12.20
2022-11-26T12:32:13.864Z,8.88
2022-11-26T12:33:12.939Z,6.04
2022-11-26T12:34:13.182Z,2.92
2022-11-26T12:35:13.114Z,2.68
2022-11-26T12:36:13.427Z,1.52
2022-11-26T12:37:13.302Z,2.92
2022-11-26T12:38:13.317Z,1.44
2022-11-26T12:39:13.680Z,1.80
2022-11-26T12:40:13.918Z,4.52
2022-11-26T12:41:12.828Z,6.92
2022-11-26T12:42:13.972Z,6.96
2022-11-26T12:43:12.833Z,3.28
2022-11-26T12:44:13.722Z,2.16
2022-11-26T12:45:17.415Z,2.32
2022-11-26T12:46:13.851Z,2.60
2022-11-26T12:47:14.115Z,3.04
2022-11-26T12:48:13.188Z,5.36
2022-11-26T12:49:13.139Z,1.76
2022-11-26T12:50:13.207Z,3.64
2022-11-26T12:51:13.761Z,3.48
2022-11-26T12:52:14.203Z,4.44
2022-11-26T12:53:13.163Z,2.32
2022-11-26T12:54:13.397Z,1.20
2022-11-26T12:55:13.325Z,3.20
2022-11-26T12:56:13.205Z,6.48
2022-11-26T12:57:13.382Z,6.84
2022-11-26T12:58:13.429Z,7.76
2022-11-26T12:59:13.470Z,3.08
2022-11-26T13:00:14.055Z,5.08
2022-11-26T13:01:13.269Z,4.80
2022-11-26T13:02:13.285Z,4.88
2022-11-26T13:03:13.342Z,7.20
2022-11-26T13:04:36.716Z,7.12
2022-11-26T13:05:13.641Z,2.64
2022-11-26T13:06:13.578Z,2.76
2022-11-26T13:07:13.529Z,2.92
2022-11-26T13:08:13.463Z,3.28
2022-11-26T13:09:15.380Z,5.56
2022-11-26T13:10:13.699Z,3.20
2022-11-26T13:11:13.945Z,4.52
2022-11-26T13:12:28.335Z,2.64
2022-11-26T13:13:13.428Z,7.68
2022-11-26T13:14:13.392Z,4.40
2022-11-26T13:15:13.579Z,5.88
2022-11-26T13:16:13.671Z,6.56
2022-11-26T13:17:13.856Z,4.04
2022-11-26T13:18:13.972Z,3.16
2022-11-26T13:19:12.951Z,3.96
2022-11-26T13:20:12.767Z,6.20
2022-11-26T13:21:13.751Z,3.84
2022-11-26T13:22:13.818Z,11.64
2022-11-26T13:23:13.725Z,16.04
2022-11-26T13:24:18.501Z,17.36
2022-11-26T13:25:12.989Z,10.32
2022-11-26T13:26:12.997Z,7.32
2022-11-26T13:27:13.073Z,8.88
2022-11-26T13:28:13.208Z,6.00
2022-11-26T13:29:13.331Z,11.52
2022-11-26T13:30:23.356Z,8.68
2022-11-26T13:31:13.569Z,7.04
2022-11-26T13:32:13.580Z,2.56
2022-11-26T13:33:13.551Z,0.84
2022-11-26T13:34:13.552Z,1.72
2022-11-26T13:35:13.735Z,3.12
2022-11-26T13:36:13.627Z,7.36
2022-11-26T13:37:13.930Z,8.04